x

Boston 16 Nm East Of Boston, Ma (44013) Wave Buoy

6:50am - Wed 27th Aug 2014 All times are EDT. -4 hours from GMT.

  • Sig Wave height 2.0ft
  • Swell Direction
  • Peak Period 8s
  • Average Period 4s
  • Wind
    13mph, 16mph gusts
  • Sea Temp 67°f
  • Air Temp 67°f
  • Sea Pressure 1015.8mb
  • Boston 16 Nm East Of Boston, Ma
  • Boston 16 Nm East Of Boston, Ma

More Historic Weather Station data

Upgrade to MSW Pro to gain access to the past 30 days of data for over 8000 Wavebouys and Weather Stations around the globe.

Join Pro

Comparision Forecast

View Surf forecast
   
Wed 08/27 6:50am 2ft 8s 4s 13 16 mph 1015.8mb 67f 67f
5:50am 2ft 8s 4s 11 13 mph 1015.7mb 67f 67f
4:50am 2ft 8s 4s 13 16 mph 1015.6mb 67f 67f
3:50am 2.5ft 8s 4s 13 16 mph 1015.9mb 67f 68f
2:50am 2.5ft 8s 4s 13 16 mph 1016.2mb 66f 68f
1:50am 2.5ft 3s 4s 13 18 mph 1016.6mb 66f 68f
12:50am 2.5ft 3s 4s 18 22 mph 1017mb 66f 68f
Tue 08/26 11:50pm 3ft 8s 4s 18 20 mph 1017.1mb 67f 68f
10:50pm 2.5ft 9s 4s 13 18 mph 1018mb 67f 69f
9:50pm 2.5ft 8s 4s 13 18 mph 1018.2mb 67f 69f
8:50pm 2.5ft 8s 4s 13 16 mph 1017.9mb 68f 70f
7:50pm 2.5ft 8s 4s 13 16 mph 1017.8mb 68f 71f
6:50pm 2.5ft 9s 4s 16 18 mph 1017.5mb 68f 71f
5:50pm 2.5ft 8s 4s 16 18 mph 1017.8mb 68f 72f
4:50pm 2.5ft 8s 4s 16 18 mph 1018.5mb 68f 71f
3:50pm 2ft 9s 4s 18 20 mph 1019.1mb 68f 71f
2:50pm 2ft 10s 5s 13 16 mph 1019.6mb 68f 70f
1:50pm 2ft 8s 4s 11 13 mph 1020.1mb 68f 69f
12:50pm 2ft 10s 5s 11 13 mph 1020.6mb 67f 69f
11:50am 2.5ft 9s 5s 11
mph
1021.1mb 67f 69f
10:50am 2.5ft 8s 5s 11
mph
1021.5mb 67f 68f
9:50am 2.5ft 7s 5s 9 11 mph 1021.6mb 66f 67f
8:50am 2.5ft 7s 5s 9 11 mph 1021.8mb 66f 66f
7:50am 2.5ft 8s 5s 11 13 mph 1021.8mb 66f 65f
6:50am 2ft 9s 5s 11 13 mph 1021.4mb 66f 65f
5:50am 2ft 8s 5s 11
mph
1020.9mb 66f 65f
4:50am 2ft 8s 5s 9 11 mph 1020.9mb 67f 65f
3:50am 2ft 8s 5s 7 9 mph 1020.8mb 67f 65f
2:50am 2ft 8s 4s 9
mph
1020.5mb 67f 65f
1:50am 2ft 8s 5s 9 11 mph 1020.6mb 67f 66f
12:50am 2.5ft 9s 5s 9 11 mph 1020.8mb 67f 67f
Mon 08/25 11:50pm 2.5ft 8s 5s 9 11 mph 1020.7mb 67f 67f
10:50pm 2.5ft 9s 6s 9
mph
1020.7mb 68f 68f
9:50pm 2.5ft 8s 6s 11
mph
1020.4mb 68f 69f
8:50pm 2.5ft 8s 6s 11 13 mph 1020.4mb 68f 69f
7:50pm 2.5ft 9s 7s 11
mph
1020.3mb 68f 69f
6:50pm 2.5ft 8s 7s 7 9 mph 1020.2mb 68f 69f
5:50pm 2.5ft 8s 7s 4 7 mph 1020mb 69f 70f
4:50pm 2.5ft 8s 7s 7 9 mph 1020.1mb 69f 70f
3:50pm 2.5ft 8s 7s 7
mph
1020.3mb 70f 70f
2:50pm 2.5ft 9s 6s 4 7 mph 1020.6mb 70f 70f
1:50pm 2.5ft 8s 7s 4 7 mph 1020.8mb 69f 70f
12:50pm 2.5ft 9s 7s 7
mph
1021.1mb 69f 70f
11:50am 2.5ft 9s 7s 2 4 mph 1021.4mb 68f 70f
10:50am 2.5ft 9s 7s 4
mph
1021.3mb 68f 68f
9:50am 3ft 8s 7s 7
mph
1021.1mb 67f 68f
8:50am 3ft 8s 7s 7 9 mph 1020.9mb 66f 67f
7:50am 2.5ft 8s 7s 4 7 mph 1020.7mb 66f 67f
6:50am 2.5ft 8s 7s 7 9 mph 1020.2mb 66f 67f
5:50am 2.5ft 8s 7s 7 9 mph 1019.8mb 66f 67f
4:50am 2.5ft 8s 7s 7
mph
1019.7mb 67f 67f
3:50am 2ft 8s 7s 7 9 mph 1019.4mb 67f 67f
2:50am 2.5ft 8s 7s 9 11 mph 1019.3mb 67f 67f
1:50am 2ft 8s 6s 7 9 mph 1019.5mb 67f 67f
12:50am 2ft 9s 6s 9 11 mph 1019.6mb 67f 67f
Sun 08/24 11:50pm 2ft 8s 6s 9 11 mph 1019.9mb 67f 67f
10:50pm 2.5ft 7s 5s 9
mph
1019.8mb 68f 67f
9:50pm 2.5ft 7s 5s 7 9 mph 1019.9mb 68f 67f
8:50pm 2.5ft 8s 6s 9
mph
1020mb 68f 68f
7:50pm 2.5ft 7s 6s 9
mph
1019.8mb 69f 68f
6:50pm 2.5ft 7s 6s 7
mph
1020mb 69f 69f
5:50pm 2.5ft 7s 6s 7 9 mph 1019.9mb 71f 69f
4:50pm 2.5ft 7s 5s 7 9 mph 1020.1mb 71f 69f
3:50pm 2ft 7s 5s 4 7 mph 1020.5mb 71f 69f
2:50pm 2ft 8s 5s 4
mph
1020.7mb 70f 68f
1:50pm 2ft 8s 5s  -  2 mph 1020.9mb 70f 68f
12:50pm 2ft 7s 5s 2
mph
1021mb 68f 67f
11:50am 2ft 8s 5s 4
mph
1021.3mb 67f 66f
10:50am 2.5ft 6s 4s 4
mph
1021mb 67f 66f
9:50am 2.5ft 6s 5s 7 9 mph 1021mb 66f 65f
8:50am 3ft 5s 5s 9
mph
1020.9mb 66f 65f
7:50am 3ft 6s 5s 9 11 mph 1020.7mb 66f 65f
6:50am 2.5ft 6s 5s 11
mph
1020.6mb 66f 65f
5:50am 2.5ft 7s 5s 9 11 mph 1020.2mb 66f 64f
4:50am 2.5ft 7s 5s 9 11 mph 1020mb 66f 65f
3:50am 2.5ft 6s 5s 9
mph
1020.1mb 66f 65f
2:50am 2.5ft 7s 5s 9
mph
1020.1mb 66f 64f
1:50am 2.5ft 5s 5s 9 11 mph 1019.9mb 66f 64f
12:50am 2.5ft 6s 5s 9
mph
1020mb 66f 65f
Sat 08/23 11:50pm 3ft 6s 5s 7 9 mph 1019.9mb 66f 65f
10:50pm 3ft 5s 5s 7
mph
1020.1mb 67f 65f
9:50pm 3ft 6s 5s 7 9 mph 1020mb 66f 65f
8:50pm 3ft 5s 5s 9
mph
1020.3mb 66f 65f
7:50pm 3.5ft 5s 5s 9 11 mph 1020.3mb 66f 65f
6:50pm 3.5ft 5s 5s 11
mph
1020.5mb 67f 66f
5:50pm 3.5ft 5s 5s 11 13 mph 1020.3mb 67f 66f
4:50pm 3ft 7s 4s 13 16 mph 1020.3mb 67f 65f
3:50pm 3.5ft 5s 4s 16 18 mph 1020.1mb 67f 65f
2:50pm 2.5ft 5s 4s 16 18 mph 1020.1mb 67f 65f
1:50pm 3ft 5s 4s 16 20 mph 1019.9mb 67f 65f
12:50pm 3ft 5s 4s 16 18 mph 1019.8mb 67f 65f